createdAt,value
2018-12-16T00:00:53.910Z,1.34
2018-12-16T00:03:21.901Z,1.45
2018-12-16T00:05:49.833Z,1.28
2018-12-16T00:08:17.845Z,1.37
2018-12-16T00:10:45.911Z,1.35
2018-12-16T00:13:13.957Z,1.25
2018-12-16T00:15:42.103Z,1.22
2018-12-16T00:18:10.390Z,1.28
2018-12-16T00:20:38.362Z,1.29
2018-12-16T00:23:07.100Z,1.33
2018-12-16T00:25:35.194Z,1.37
2018-12-16T00:28:03.215Z,1.43
2018-12-16T00:30:31.183Z,1.39
2018-12-16T00:32:59.170Z,1.37
2018-12-16T00:35:27.137Z,1.41
2018-12-16T00:37:55.085Z,1.43
2018-12-16T00:40:23.045Z,1.37
2018-12-16T00:42:51.765Z,1.41
2018-12-16T00:45:19.795Z,1.37
2018-12-16T00:47:47.771Z,1.35
2018-12-16T00:50:15.802Z,1.29
2018-12-16T00:52:43.881Z,1.26
2018-12-16T00:55:11.886Z,1.34
2018-12-16T00:57:43.245Z,1.31
2018-12-16T01:00:12.557Z,1.38
2018-12-16T01:02:42.539Z,1.35
2018-12-16T01:05:10.889Z,1.36
2018-12-16T01:07:38.988Z,1.31
2018-12-16T01:10:08.450Z,1.31
2018-12-16T01:12:36.461Z,1.38
2018-12-16T01:15:04.898Z,1.43
2018-12-16T01:17:32.902Z,1.41
2018-12-16T01:20:01.724Z,1.41
2018-12-16T01:22:30.039Z,1.51
2018-12-16T01:24:58.070Z,1.40
2018-12-16T01:27:26.941Z,1.39
2018-12-16T01:29:54.985Z,1.37
2018-12-16T01:32:23.140Z,1.33
2018-12-16T01:34:51.110Z,1.35
2018-12-16T01:37:19.051Z,1.51
2018-12-16T01:39:47.599Z,1.36
2018-12-16T01:42:15.569Z,1.41
2018-12-16T01:44:43.528Z,1.35
2018-12-16T01:47:11.502Z,1.38
2018-12-16T01:49:39.479Z,1.39
2018-12-16T01:52:07.535Z,1.40
2018-12-16T01:54:35.504Z,1.32
2018-12-16T01:57:03.520Z,1.38
2018-12-16T01:59:31.500Z,1.34
2018-12-16T02:01:59.650Z,1.39
2018-12-16T02:04:28.450Z,1.36
2018-12-16T02:06:56.495Z,1.37
2018-12-16T02:09:24.509Z,1.37
2018-12-16T02:11:52.617Z,1.34
2018-12-16T02:14:20.544Z,1.36
2018-12-16T02:16:49.254Z,1.45
2018-12-16T02:19:17.224Z,1.55
2018-12-16T02:21:45.194Z,1.43
2018-12-16T02:24:13.186Z,1.40
2018-12-16T02:26:41.205Z,1.41
2018-12-16T02:29:09.206Z,1.46
2018-12-16T02:31:37.270Z,1.35
2018-12-16T02:34:05.645Z,1.38
2018-12-16T02:36:33.799Z,1.43
2018-12-16T02:39:01.818Z,1.46
2018-12-16T02:41:29.971Z,1.41
2018-12-16T02:43:57.972Z,1.40
2018-12-16T02:46:25.918Z,1.48
2018-12-16T02:48:54.033Z,1.36
2018-12-16T02:51:22.009Z,1.34
2018-12-16T02:53:50.009Z,1.27
2018-12-16T02:56:18.405Z,1.35
2018-12-16T02:58:46.473Z,1.39
2018-12-16T03:01:14.557Z,1.45
2018-12-16T03:03:42.514Z,1.48
2018-12-16T03:06:10.458Z,1.53
2018-12-16T03:08:38.474Z,1.49
2018-12-16T03:11:06.628Z,1.40
2018-12-16T03:13:34.720Z,1.46
2018-12-16T03:16:02.656Z,1.42
2018-12-16T03:18:30.713Z,1.28
2018-12-16T03:20:58.749Z,1.24
2018-12-16T03:23:26.885Z,1.28
2018-12-16T03:25:54.975Z,1.24
2018-12-16T03:28:22.899Z,1.20
2018-12-16T03:30:50.967Z,1.10
2018-12-16T03:33:19.026Z,0.88
2018-12-16T03:35:47.031Z,0.93
2018-12-16T03:38:15.059Z,0.79
2018-12-16T03:40:43.019Z,0.82
2018-12-16T03:43:10.998Z,0.73
2018-12-16T03:45:38.979Z,0.68
2018-12-16T03:48:06.967Z,0.69
2018-12-16T03:50:35.084Z,0.60
2018-12-16T03:53:03.080Z,0.62
2018-12-16T03:55:31.551Z,0.58
2018-12-16T03:57:59.598Z,0.65
2018-12-16T04:00:27.740Z,0.58
2018-12-16T04:02:55.756Z,0.52
2018-12-16T04:05:23.722Z,0.32
2018-12-16T04:07:51.707Z,0.37
2018-12-16T04:10:19.713Z,0.25
2018-12-16T04:12:47.686Z,0.31
2018-12-16T04:15:15.758Z,0.22
2018-12-16T04:17:43.767Z,0.21
2018-12-16T04:20:11.935Z,0.28
2018-12-16T04:22:40.641Z,0.33
2018-12-16T04:25:08.629Z,0.30
2018-12-16T04:27:36.591Z,0.23
2018-12-16T04:30:05.563Z,0.22
2018-12-16T04:32:33.510Z,0.25
2018-12-16T04:35:01.554Z,0.32
2018-12-16T04:37:29.594Z,0.23
2018-12-16T04:39:57.600Z,0.34
2018-12-16T04:42:25.746Z,0.36
2018-12-16T04:44:53.777Z,0.33
2018-12-16T04:47:21.766Z,0.32
2018-12-16T04:49:49.835Z,0.19
2018-12-16T04:52:17.912Z,0.10
2018-12-16T04:54:45.878Z,0.06
2018-12-16T04:57:14.058Z,0.07
2018-12-16T04:59:42.010Z,0.05
2018-12-16T05:02:09.953Z,0.15
2018-12-16T05:04:38.123Z,0.06
2018-12-16T05:07:06.067Z,0.13
2018-12-16T05:09:34.170Z,0.03
2018-12-16T05:12:02.161Z,0.09
2018-12-16T05:14:30.137Z,0.15
2018-12-16T05:16:58.091Z,0.03
2018-12-16T05:19:26.518Z,-0.03
2018-12-16T05:21:54.490Z,-0.03
2018-12-16T05:24:23.010Z,0.02
2018-12-16T05:26:50.962Z,-0.01
2018-12-16T05:29:18.910Z,0.06
2018-12-16T05:31:46.985Z,-0.00
2018-12-16T05:34:14.985Z,-0.10
2018-12-16T05:36:42.939Z,-0.01
2018-12-16T05:39:11.833Z,-0.03
2018-12-16T05:41:39.817Z,-0.06
2018-12-16T05:44:07.791Z,-0.00
2018-12-16T05:46:35.753Z,0.01
2018-12-16T05:49:03.726Z,0.02
2018-12-16T05:51:31.699Z,-0.02
2018-12-16T05:53:59.687Z,-0.03
2018-12-16T05:56:27.621Z,0.01
2018-12-16T05:58:55.587Z,-0.01
2018-12-16T06:01:23.623Z,0.04
2018-12-16T06:03:51.626Z,0.03
2018-12-16T06:06:19.590Z,0.06
2018-12-16T06:08:47.638Z,0.02
2018-12-16T06:11:15.667Z,-0.02
2018-12-16T06:13:43.705Z,0.05
2018-12-16T06:16:11.698Z,-0.00
2018-12-16T06:18:39.694Z,-0.03
2018-12-16T06:21:07.688Z,0.05
2018-12-16T06:23:35.727Z,-0.01
2018-12-16T06:26:03.758Z,0.01
2018-12-16T06:28:31.709Z,0.01
2018-12-16T06:30:59.699Z,0.02
2018-12-16T06:33:27.679Z,0.03
2018-12-16T06:35:55.642Z,0.09
2018-12-16T06:38:23.629Z,0.09
2018-12-16T06:40:51.612Z,0.01
2018-12-16T06:43:19.677Z,0.17
2018-12-16T06:45:47.735Z,0.06
2018-12-16T06:48:15.686Z,0.19
2018-12-16T06:50:43.795Z,0.05
2018-12-16T06:53:11.819Z,-0.02
2018-12-16T06:55:43.237Z,0.05
2018-12-16T06:58:09.899Z,0.02
2018-12-16T07:00:37.854Z,0.04
2018-12-16T07:03:05.857Z,0.13
2018-12-16T07:05:33.890Z,0.01
2018-12-16T07:08:01.926Z,0.04
2018-12-16T07:10:29.880Z,-0.10
2018-12-16T07:12:57.916Z,-0.00
2018-12-16T07:15:25.894Z,-0.07
2018-12-16T07:17:53.924Z,-0.10
2018-12-16T07:20:21.971Z,0.32
2018-12-16T07:22:50.054Z,0.03
2018-12-16T07:25:18.037Z,0.04
2018-12-16T07:27:46.200Z,0.07
2018-12-16T07:30:14.997Z,0.04
2018-12-16T07:32:42.978Z,0.07
2018-12-16T07:35:10.922Z,0.02
2018-12-16T07:37:38.905Z,0.12
2018-12-16T07:40:06.977Z,0.15
2018-12-16T07:42:35.007Z,0.10
2018-12-16T07:45:03.381Z,0.04
2018-12-16T07:47:31.358Z,0.02
2018-12-16T07:49:59.367Z,-0.00
2018-12-16T07:52:27.374Z,0.06
2018-12-16T07:54:55.339Z,0.15
2018-12-16T07:57:23.365Z,0.07
2018-12-16T07:59:51.323Z,0.08
2018-12-16T08:02:19.443Z,0.06
2018-12-16T08:04:48.143Z,0.12
2018-12-16T08:07:16.079Z,0.14
2018-12-16T08:09:44.159Z,0.12
2018-12-16T08:12:12.207Z,0.16
2018-12-16T08:14:41.098Z,0.15
2018-12-16T08:17:09.965Z,0.15
2018-12-16T08:19:37.934Z,0.21
2018-12-16T08:22:05.966Z,0.20
2018-12-16T08:24:33.974Z,0.03
2018-12-16T08:27:02.800Z,0.06
2018-12-16T08:29:30.883Z,0.13
2018-12-16T08:31:59.018Z,0.12
2018-12-16T08:34:26.972Z,0.18
2018-12-16T08:36:54.967Z,0.23
2018-12-16T08:39:22.957Z,0.09
2018-12-16T08:41:50.914Z,0.23
2018-12-16T08:44:18.907Z,0.05
2018-12-16T08:46:47.274Z,0.07
2018-12-16T08:49:15.234Z,0.12
2018-12-16T08:51:43.299Z,0.16
2018-12-16T08:54:11.257Z,0.07
2018-12-16T08:56:39.254Z,0.15
2018-12-16T08:59:07.232Z,0.19
2018-12-16T09:01:35.201Z,0.21
2018-12-16T09:04:03.164Z,0.12
2018-12-16T09:06:31.156Z,0.08
2018-12-16T09:08:59.440Z,0.20
2018-12-16T09:11:27.657Z,0.18
2018-12-16T09:13:55.621Z,0.18
2018-12-16T09:16:23.910Z,0.14
2018-12-16T09:18:51.851Z,0.08
2018-12-16T09:21:19.838Z,0.06
2018-12-16T09:23:47.825Z,0.23
2018-12-16T09:26:15.826Z,0.24
2018-12-16T09:28:43.789Z,0.20
2018-12-16T09:31:11.840Z,0.13
2018-12-16T09:33:39.809Z,0.24
2018-12-16T09:36:07.810Z,0.27
2018-12-16T09:38:36.455Z,0.29
2018-12-16T09:41:04.609Z,0.22
2018-12-16T09:43:32.718Z,0.27
2018-12-16T09:46:00.787Z,0.30
2018-12-16T09:48:28.814Z,0.34
2018-12-16T09:50:57.284Z,0.31
2018-12-16T09:53:25.289Z,0.23
2018-12-16T09:55:53.254Z,0.36
2018-12-16T09:58:21.226Z,0.27
2018-12-16T10:00:49.335Z,0.22
2018-12-16T10:03:17.325Z,0.71
2018-12-16T10:05:45.320Z,0.96
2018-12-16T10:08:13.307Z,0.71
2018-12-16T10:10:41.263Z,0.54
2018-12-16T10:13:09.404Z,0.76
2018-12-16T10:15:37.362Z,1.04
2018-12-16T10:18:05.358Z,0.66
2018-12-16T10:20:33.305Z,0.58
2018-12-16T10:23:01.298Z,0.51
2018-12-16T10:25:29.241Z,0.46
2018-12-16T10:27:57.280Z,0.48
2018-12-16T10:30:25.282Z,0.49
2018-12-16T10:32:53.283Z,0.49
2018-12-16T10:35:21.441Z,0.49
2018-12-16T10:37:49.774Z,0.49
2018-12-16T10:40:17.701Z,0.40
2018-12-16T10:42:45.854Z,0.49
2018-12-16T10:45:14.511Z,0.53
2018-12-16T10:47:42.641Z,0.48
2018-12-16T10:50:10.700Z,0.59
2018-12-16T10:52:38.737Z,0.53
2018-12-16T10:55:06.881Z,0.57
2018-12-16T10:57:34.897Z,0.68
2018-12-16T11:00:16.746Z,0.59
2018-12-16T11:02:44.738Z,0.62
2018-12-16T11:05:12.765Z,0.77
2018-12-16T11:07:41.053Z,0.60
2018-12-16T11:10:09.306Z,0.73
2018-12-16T11:12:39.245Z,0.66
2018-12-16T11:15:08.174Z,0.44
2018-12-16T11:17:36.292Z,0.40
2018-12-16T11:20:04.898Z,0.39
2018-12-16T11:22:32.870Z,0.33
2018-12-16T11:25:05.626Z,0.40
2018-12-16T11:27:30.893Z,0.49
2018-12-16T11:29:58.923Z,0.49
2018-12-16T11:32:26.898Z,0.50
2018-12-16T11:34:55.028Z,0.45
2018-12-16T11:37:22.998Z,0.48
2018-12-16T11:39:50.963Z,0.51
2018-12-16T11:42:18.946Z,0.50
2018-12-16T11:44:46.976Z,0.58
2018-12-16T11:47:15.190Z,0.59
2018-12-16T11:49:44.421Z,0.51
2018-12-16T11:52:12.545Z,0.57
2018-12-16T11:54:41.006Z,0.58
2018-12-16T11:57:10.081Z,0.54
2018-12-16T11:59:38.066Z,0.46
2018-12-16T12:02:06.180Z,0.48
2018-12-16T12:04:34.110Z,0.68
2018-12-16T12:07:02.111Z,0.51
2018-12-16T12:09:30.122Z,0.53
2018-12-16T12:11:58.102Z,0.72
2018-12-16T12:14:26.062Z,0.54
2018-12-16T12:16:54.063Z,0.64
2018-12-16T12:19:22.576Z,0.72
2018-12-16T12:21:50.802Z,0.69
2018-12-16T12:24:18.770Z,0.76
2018-12-16T12:26:46.773Z,0.65
2018-12-16T12:29:14.754Z,0.61
2018-12-16T12:31:42.720Z,0.83
2018-12-16T12:34:10.681Z,0.87
2018-12-16T12:36:38.757Z,0.79
2018-12-16T12:39:06.756Z,0.71
2018-12-16T12:41:34.781Z,0.61
2018-12-16T12:44:02.814Z,0.63
2018-12-16T12:46:30.754Z,0.61
2018-12-16T12:48:58.720Z,0.72
2018-12-16T12:51:26.713Z,0.71
2018-12-16T12:53:54.695Z,0.80
2018-12-16T12:56:23.200Z,0.73
2018-12-16T12:58:51.155Z,0.67
2018-12-16T13:01:19.118Z,0.40
2018-12-16T13:03:47.087Z,0.42
2018-12-16T13:06:15.026Z,0.38
2018-12-16T13:08:42.984Z,0.37
2018-12-16T13:11:11.060Z,0.36
2018-12-16T13:13:39.097Z,0.43
2018-12-16T13:16:07.297Z,0.50
2018-12-16T13:18:35.786Z,0.48
2018-12-16T13:21:03.753Z,0.43
2018-12-16T13:23:31.703Z,0.38
2018-12-16T13:26:02.438Z,0.43
2018-12-16T13:28:30.554Z,0.46
2018-12-16T13:30:58.561Z,0.38
2018-12-16T13:33:26.587Z,0.37
2018-12-16T13:35:54.611Z,0.55
2018-12-16T13:38:22.639Z,0.58
2018-12-16T13:40:50.699Z,0.55
2018-12-16T13:43:18.662Z,0.48
2018-12-16T13:45:46.671Z,0.43
2018-12-16T13:48:14.650Z,0.43
2018-12-16T13:50:42.970Z,0.59
2018-12-16T13:53:10.910Z,0.55
2018-12-16T13:55:40.997Z,0.64
2018-12-16T13:58:08.899Z,0.58
2018-12-16T14:00:36.885Z,0.58
2018-12-16T14:03:04.892Z,0.64
2018-12-16T14:05:32.982Z,0.71
2018-12-16T14:08:00.932Z,0.74
2018-12-16T14:10:28.921Z,0.73
2018-12-16T14:12:56.912Z,0.71
2018-12-16T14:15:24.927Z,0.64
2018-12-16T14:17:52.914Z,0.66
2018-12-16T14:20:21.630Z,0.69
2018-12-16T14:22:49.627Z,0.79
2018-12-16T14:25:17.654Z,0.90
2018-12-16T14:27:45.650Z,0.97
2018-12-16T14:30:13.622Z,0.97
2018-12-16T14:32:41.747Z,1.01
2018-12-16T14:35:10.542Z,0.87
2018-12-16T14:37:38.592Z,0.71
2018-12-16T14:40:08.109Z,0.75
2018-12-16T14:42:36.477Z,0.78
2018-12-16T14:45:06.538Z,0.80
2018-12-16T14:47:34.498Z,0.82
2018-12-16T14:50:02.517Z,0.67
2018-12-16T14:52:30.565Z,0.61
2018-12-16T14:54:58.503Z,0.71
2018-12-16T14:57:26.541Z,0.64
2018-12-16T14:59:54.511Z,0.64
2018-12-16T15:02:22.447Z,0.72
2018-12-16T15:04:50.401Z,0.68
2018-12-16T15:07:18.373Z,0.61
2018-12-16T15:09:46.542Z,0.54
2018-12-16T15:12:14.560Z,0.63
2018-12-16T15:14:42.917Z,0.76
2018-12-16T15:17:10.990Z,0.71
2018-12-16T15:19:38.988Z,0.63
2018-12-16T15:22:06.962Z,0.77
2018-12-16T15:24:34.910Z,0.62
2018-12-16T15:27:02.923Z,0.67
2018-12-16T15:29:30.871Z,0.61
2018-12-16T15:31:59.395Z,0.55
2018-12-16T15:34:27.377Z,0.59
2018-12-16T15:36:55.959Z,0.63
2018-12-16T15:39:23.975Z,0.66
2018-12-16T15:41:52.002Z,0.71
2018-12-16T15:44:20.072Z,0.77
2018-12-16T15:46:48.041Z,0.84
2018-12-16T15:49:16.112Z,0.80
2018-12-16T15:51:44.170Z,0.73
2018-12-16T15:54:12.544Z,0.72
2018-12-16T15:56:40.595Z,0.60
2018-12-16T15:59:08.580Z,0.57
2018-12-16T16:01:37.508Z,0.69
2018-12-16T16:04:06.671Z,0.77
2018-12-16T16:06:34.636Z,0.69
2018-12-16T16:09:03.296Z,0.73
2018-12-16T16:11:32.278Z,0.66
2018-12-16T16:14:01.448Z,0.47
2018-12-16T16:16:29.379Z,0.54
2018-12-16T16:18:57.452Z,0.66
2018-12-16T16:21:25.455Z,0.58
2018-12-16T16:23:53.432Z,0.63
2018-12-16T16:26:21.398Z,0.59
2018-12-16T16:28:50.331Z,0.50
2018-12-16T16:31:18.469Z,0.50
2018-12-16T16:33:46.410Z,0.63
2018-12-16T16:36:14.406Z,0.78
2018-12-16T16:38:42.476Z,0.74
2018-12-16T16:41:10.531Z,0.65
2018-12-16T16:43:38.505Z,0.65
2018-12-16T16:46:06.573Z,0.65
2018-12-16T16:48:34.554Z,0.72
2018-12-16T16:51:02.722Z,0.63
2018-12-16T16:53:30.694Z,0.62
2018-12-16T16:56:01.463Z,0.60
2018-12-16T16:58:29.471Z,0.71
2018-12-16T17:00:57.466Z,0.73
2018-12-16T17:03:25.542Z,0.73
2018-12-16T17:05:53.622Z,0.73
2018-12-16T17:08:21.611Z,0.83
2018-12-16T17:10:49.657Z,0.82
2018-12-16T17:13:18.361Z,0.66
2018-12-16T17:15:46.373Z,0.63
2018-12-16T17:18:14.326Z,0.61
2018-12-16T17:20:42.475Z,0.73
2018-12-16T17:23:10.438Z,0.62
2018-12-16T17:25:38.567Z,0.57
2018-12-16T17:28:06.754Z,0.68
2018-12-16T17:30:34.794Z,0.59
2018-12-16T17:33:02.923Z,0.71
2018-12-16T17:35:30.894Z,0.71
2018-12-16T17:37:58.864Z,0.72
2018-12-16T17:40:26.831Z,0.75
2018-12-16T17:42:54.903Z,0.82
2018-12-16T17:45:22.981Z,0.81
2018-12-16T17:47:50.962Z,0.83
2018-12-16T17:50:18.946Z,0.77
2018-12-16T17:52:46.922Z,0.67
2018-12-16T17:55:14.925Z,0.55
2018-12-16T17:57:42.868Z,0.69
2018-12-16T18:00:11.488Z,0.59
2018-12-16T18:02:39.558Z,0.55
2018-12-16T18:05:07.558Z,0.54
2018-12-16T18:07:35.708Z,0.61
2018-12-16T18:10:04.574Z,0.59
2018-12-16T18:12:32.722Z,0.63
2018-12-16T18:15:00.929Z,0.63
2018-12-16T18:17:28.968Z,0.61
2018-12-16T18:19:57.021Z,0.55
2018-12-16T18:22:25.045Z,0.64
2018-12-16T18:24:57.133Z,0.48
2018-12-16T18:27:25.121Z,0.49
2018-12-16T18:29:53.089Z,0.51
2018-12-16T18:32:21.601Z,0.46
2018-12-16T18:34:49.946Z,0.51
2018-12-16T18:37:18.581Z,0.57
2018-12-16T18:39:46.558Z,1.27
2018-12-16T18:42:15.637Z,0.97
2018-12-16T18:44:43.603Z,0.69
2018-12-16T18:47:11.626Z,0.71
2018-12-16T18:49:39.697Z,0.67
2018-12-16T18:52:07.666Z,0.66
2018-12-16T18:54:35.844Z,0.67
2018-12-16T18:57:07.147Z,0.60
2018-12-16T18:59:33.850Z,0.67
2018-12-16T19:02:01.809Z,0.64
2018-12-16T19:04:29.786Z,0.58
2018-12-16T19:06:57.755Z,0.58
2018-12-16T19:09:25.737Z,0.59
2018-12-16T19:11:53.691Z,0.42
2018-12-16T19:14:21.853Z,0.51
2018-12-16T19:16:49.978Z,0.50
2018-12-16T19:19:18.010Z,0.55
2018-12-16T19:21:45.978Z,0.46
2018-12-16T19:24:13.997Z,0.50
2018-12-16T19:26:42.009Z,0.47
2018-12-16T19:29:10.100Z,0.59
2018-12-16T19:31:38.100Z,0.55
2018-12-16T19:34:06.103Z,0.57
2018-12-16T19:36:34.300Z,0.69
2018-12-16T19:39:05.071Z,0.53
2018-12-16T19:41:33.215Z,0.60
2018-12-16T19:44:01.230Z,0.63
2018-12-16T19:46:30.060Z,0.64
2018-12-16T19:48:58.045Z,0.62
2018-12-16T19:51:27.490Z,0.61
2018-12-16T19:53:55.514Z,0.53
2018-12-16T19:56:23.796Z,0.54
2018-12-16T19:58:52.398Z,0.96
2018-12-16T20:01:20.511Z,0.97
2018-12-16T20:03:54.276Z,0.91
2018-12-16T20:06:27.804Z,0.80
2018-12-16T20:08:55.803Z,0.77
2018-12-16T20:11:25.115Z,0.76
2018-12-16T20:13:53.134Z,0.66
2018-12-16T20:16:21.189Z,0.67
2018-12-16T20:18:49.433Z,0.77
2018-12-16T20:21:17.449Z,0.68
2018-12-16T20:23:45.504Z,0.66
2018-12-16T20:26:13.484Z,0.77
2018-12-16T20:28:41.512Z,0.73
2018-12-16T20:31:09.556Z,0.79
2018-12-16T20:33:37.775Z,0.88
2018-12-16T20:36:05.779Z,0.93
2018-12-16T20:38:33.734Z,0.99
2018-12-16T20:41:01.887Z,0.97
2018-12-16T20:43:29.883Z,1.11
2018-12-16T20:45:58.393Z,1.07
2018-12-16T20:48:26.326Z,0.89
2018-12-16T20:50:54.505Z,0.88
2018-12-16T20:53:22.486Z,0.82
2018-12-16T20:55:50.956Z,0.78
2018-12-16T20:58:19.088Z,0.75
2018-12-16T21:00:47.105Z,0.77
2018-12-16T21:03:15.114Z,0.80
2018-12-16T21:05:43.217Z,0.89
2018-12-16T21:08:11.353Z,0.89
2018-12-16T21:10:39.404Z,0.80
2018-12-16T21:13:13.216Z,0.79
2018-12-16T21:15:47.071Z,0.71
2018-12-16T21:18:22.382Z,0.79
2018-12-16T21:20:51.589Z,0.84
2018-12-16T21:23:19.809Z,0.77
2018-12-16T21:25:47.771Z,0.77
2018-12-16T21:28:16.307Z,0.73
2018-12-16T21:30:44.326Z,0.65
2018-12-16T21:33:12.716Z,0.55
2018-12-16T21:35:40.713Z,0.65
2018-12-16T21:38:08.733Z,0.66
2018-12-16T21:40:36.803Z,1.09
2018-12-16T21:43:05.402Z,1.58
2018-12-16T21:45:33.387Z,1.78
2018-12-16T21:48:01.350Z,1.92
2018-12-16T21:50:29.343Z,1.96
2018-12-16T21:52:58.342Z,1.96
2018-12-16T21:55:26.329Z,2.00
2018-12-16T21:57:54.372Z,1.65
2018-12-16T22:00:22.465Z,1.43
2018-12-16T22:02:50.424Z,1.32
2018-12-16T22:05:20.320Z,1.26
2018-12-16T22:07:48.503Z,1.12
2018-12-16T22:10:16.455Z,1.24
2018-12-16T22:12:44.523Z,1.03
2018-12-16T22:15:13.263Z,1.13
2018-12-16T22:17:41.471Z,0.94
2018-12-16T22:20:09.814Z,0.89
2018-12-16T22:22:37.741Z,0.96
2018-12-16T22:25:05.886Z,0.90
2018-12-16T22:27:40.036Z,0.81
2018-12-16T22:30:05.470Z,0.91
2018-12-16T22:32:33.459Z,0.90
2018-12-16T22:35:01.411Z,0.91
2018-12-16T22:37:29.535Z,1.01
2018-12-16T22:39:57.593Z,0.89
2018-12-16T22:42:25.687Z,1.02
2018-12-16T22:44:53.766Z,0.86
2018-12-16T22:47:21.750Z,0.86
2018-12-16T22:49:49.774Z,0.78
2018-12-16T22:52:18.283Z,0.73
2018-12-16T22:54:46.387Z,0.72
2018-12-16T22:57:14.426Z,0.71
2018-12-16T22:59:42.399Z,0.67
2018-12-16T23:02:10.397Z,0.64
2018-12-16T23:04:39.085Z,0.64
2018-12-16T23:07:07.208Z,0.57
2018-12-16T23:09:35.131Z,0.62
2018-12-16T23:12:03.278Z,0.71
2018-12-16T23:14:32.535Z,0.57
2018-12-16T23:17:01.375Z,0.53
2018-12-16T23:19:29.413Z,0.40
2018-12-16T23:21:57.697Z,0.57
2018-12-16T23:24:26.587Z,0.53
2018-12-16T23:26:54.557Z,0.57
2018-12-16T23:29:22.546Z,0.54
2018-12-16T23:31:50.614Z,0.65
2018-12-16T23:34:19.002Z,0.54
2018-12-16T23:36:46.973Z,0.59
2018-12-16T23:39:15.526Z,0.53
2018-12-16T23:41:43.552Z,0.53
2018-12-16T23:44:11.689Z,0.60
2018-12-16T23:46:39.643Z,0.50
2018-12-16T23:49:07.615Z,0.49
2018-12-16T23:51:37.210Z,0.60
2018-12-16T23:54:05.370Z,0.53
2018-12-16T23:56:33.673Z,0.48
2018-12-16T23:59:01.918Z,0.42
